HTMW

Mwanza Airport

Mwanza, Tanzania
METAR HTMW 180000Z 00000KT 9999 FEW018 FEW019CB 20/19 Q1014 NOSIG
Observed Flight Rules
Dec-18 @ 00:00 UTC (3 hours ago) Visual Flight Rules
Wind Visibility Clouds
Calm 10,000+ meters
  • Few at 1,800' AGL
  • Few at 1,900' AGL
Temperatures Readings
Current 20°C / 68°F
Dewpoint 19°C / 66°F
Humidity 94%
Altimeter 29.94" Hg
Pressure 1014 hPa
Elevation 1140
METAR HTMW 180000Z 00000KT 9999 FEW018 FEW019CB 20/19 Q1014 NOSIG
Observed Flight Rules
Dec-18 @ 00:00 UTC
(3 hours ago)
VFR
Wind Visibility
Calm 10,000+ meters
Clouds
  • Few at 1,800' AGL
  • Few at 1,900' AGL
Temperature Dewpoint
20°C / 68°F 19°C / 66°F
Humidity Altimeter Pressure
94% 29.94" Hg 1014 hPa